createdAt,value
2022-10-11T00:01:18.120Z,10.60
2022-10-11T00:03:44.530Z,10.45
2022-10-11T00:06:11.207Z,10.53
2022-10-11T00:08:37.849Z,10.41
2022-10-11T00:11:07.721Z,10.51
2022-10-11T00:13:34.721Z,10.45
2022-10-11T00:16:01.285Z,10.41
2022-10-11T00:18:27.832Z,10.40
2022-10-11T00:21:02.962Z,10.30
2022-10-11T00:23:29.384Z,10.38
2022-10-11T00:25:57.559Z,10.36
2022-10-11T00:28:24.061Z,10.32
2022-10-11T00:30:50.447Z,10.33
2022-10-11T00:33:16.920Z,10.33
2022-10-11T00:35:44.911Z,10.28
2022-10-11T00:38:11.462Z,10.29
2022-10-11T00:40:38.279Z,10.23
2022-10-11T00:43:14.293Z,10.27
2022-10-11T00:45:40.715Z,10.26
2022-10-11T00:48:17.466Z,10.27
2022-10-11T00:50:43.981Z,10.29
2022-10-11T00:53:12.164Z,10.28
2022-10-11T00:56:05.161Z,10.39
2022-10-11T00:58:35.184Z,10.41
2022-10-11T01:01:02.292Z,10.40
2022-10-11T01:03:30.387Z,10.47
2022-10-11T01:05:57.193Z,10.46
2022-10-11T01:08:24.805Z,10.54
2022-10-11T01:10:52.103Z,10.53
2022-10-11T01:13:18.437Z,10.58
2022-10-11T01:15:58.205Z,10.57
2022-10-11T01:18:35.661Z,10.62
2022-10-11T01:21:15.076Z,10.55
2022-10-11T01:24:04.655Z,10.60
2022-10-11T01:27:16.359Z,10.54
2022-10-11T01:30:03.591Z,10.60
2022-10-11T01:33:00.585Z,10.47
2022-10-11T01:36:07.528Z,10.56
2022-10-11T01:38:50.170Z,10.46
2022-10-11T01:41:23.779Z,10.45
2022-10-11T01:43:55.628Z,10.36
2022-10-11T01:46:23.804Z,10.36
2022-10-11T01:48:52.105Z,10.27
2022-10-11T01:51:28.613Z,10.24
2022-10-11T01:54:07.906Z,10.23
2022-10-11T01:57:10.367Z,10.25
2022-10-11T01:59:51.807Z,10.19
2022-10-11T02:02:36.257Z,10.16
2022-10-11T02:05:38.142Z,10.12
2022-10-11T02:08:47.655Z,10.08
2022-10-11T02:11:28.726Z,10.07
2022-10-11T02:14:20.492Z,10.04
2022-10-11T02:16:53.975Z,9.99
2022-10-11T02:19:26.269Z,9.98
2022-10-11T02:21:57.622Z,10.04
2022-10-11T02:24:36.648Z,10.02
2022-10-11T02:27:05.162Z,10.03
2022-10-11T02:29:36.028Z,10.05
2022-10-11T02:32:02.509Z,10.03
2022-10-11T02:34:37.724Z,10.09
2022-10-11T02:37:19.323Z,10.12
2022-10-11T02:40:16.014Z,10.20
2022-10-11T02:42:48.662Z,10.21
2022-10-11T02:45:19.702Z,10.24
2022-10-11T02:47:47.246Z,10.28
2022-10-11T02:50:14.275Z,10.27
2022-10-11T02:52:40.680Z,10.24
2022-10-11T02:55:07.928Z,10.17
2022-10-11T02:57:34.300Z,10.14
2022-10-11T03:00:00.645Z,10.16
2022-10-11T03:02:27.377Z,10.16
2022-10-11T03:04:53.889Z,10.15
2022-10-11T03:07:20.298Z,10.07
2022-10-11T03:09:46.830Z,10.02
2022-10-11T03:12:13.203Z,10.05
2022-10-11T03:14:39.707Z,10.01
2022-10-11T03:17:31.020Z,10.00
2022-10-11T03:19:52.624Z,10.01
2022-10-11T03:22:19.088Z,10.01
2022-10-11T03:24:45.492Z,10.01
2022-10-11T03:27:12.219Z,10.06
2022-10-11T03:29:38.808Z,10.07
2022-10-11T03:32:05.636Z,10.12
2022-10-11T03:34:32.021Z,10.13
2022-10-11T03:36:58.407Z,10.17
2022-10-11T03:39:24.793Z,10.18
2022-10-11T03:41:51.162Z,10.19
2022-10-11T03:44:17.668Z,10.22
2022-10-11T03:46:44.024Z,10.10
2022-10-11T03:49:10.394Z,10.14
2022-10-11T03:51:36.759Z,10.16
2022-10-11T03:54:03.206Z,10.10
2022-10-11T03:56:29.554Z,10.08
2022-10-11T03:58:55.938Z,10.04
2022-10-11T04:01:22.385Z,10.00
2022-10-11T04:03:48.898Z,9.94
2022-10-11T04:06:15.266Z,9.90
2022-10-11T04:08:41.653Z,9.84
2022-10-11T04:11:08.070Z,9.78
2022-10-11T04:13:34.416Z,9.77
2022-10-11T04:16:00.833Z,9.76
2022-10-11T04:18:27.297Z,9.74
2022-10-11T04:20:53.907Z,9.65
2022-10-11T04:23:20.294Z,9.68
2022-10-11T04:25:48.301Z,9.67
2022-10-11T04:28:14.815Z,9.59
2022-10-11T04:30:41.287Z,9.58
2022-10-11T04:33:07.921Z,9.58
2022-10-11T04:35:34.328Z,9.55
2022-10-11T04:38:00.797Z,9.50
2022-10-11T04:40:27.343Z,9.45
2022-10-11T04:42:53.956Z,9.43
2022-10-11T04:45:21.632Z,9.41
2022-10-11T04:47:48.086Z,9.36
2022-10-11T04:50:14.830Z,9.32
2022-10-11T04:52:41.306Z,9.30
2022-10-11T04:55:08.094Z,9.28
2022-10-11T04:57:34.532Z,9.28
2022-10-11T05:00:01.871Z,9.26
2022-10-11T05:02:28.322Z,9.18
2022-10-11T05:04:54.875Z,9.14
2022-10-11T05:07:21.290Z,9.17
2022-10-11T05:09:47.657Z,9.19
2022-10-11T05:12:14.050Z,9.19
2022-10-11T05:14:40.449Z,9.17
2022-10-11T05:17:06.823Z,9.14
2022-10-11T05:19:33.187Z,9.12
2022-10-11T05:21:59.615Z,9.10
2022-10-11T05:24:26.096Z,9.07
2022-10-11T05:26:52.707Z,9.07
2022-10-11T05:29:19.070Z,9.05
2022-10-11T05:31:45.463Z,9.00
2022-10-11T05:34:11.866Z,9.01
2022-10-11T05:36:38.270Z,8.91
2022-10-11T05:39:04.668Z,8.92
2022-10-11T05:41:31.103Z,8.93
2022-10-11T05:43:57.477Z,8.89
2022-10-11T05:46:24.080Z,8.90
2022-10-11T05:48:50.446Z,8.83
2022-10-11T05:51:16.819Z,8.86
2022-10-11T05:53:43.319Z,8.87
2022-10-11T05:56:21.428Z,8.86
2022-10-11T05:58:48.467Z,8.87
2022-10-11T06:01:23.157Z,8.86
2022-10-11T06:03:49.895Z,8.96
2022-10-11T06:06:16.631Z,8.98
2022-10-11T06:08:43.479Z,9.07
2022-10-11T06:11:25.296Z,9.14
2022-10-11T06:13:57.927Z,9.21
2022-10-11T06:16:24.870Z,9.20
2022-10-11T06:18:55.422Z,9.25
2022-10-11T06:21:23.144Z,9.30
2022-10-11T06:23:50.958Z,9.36
2022-10-11T06:26:18.105Z,9.35
2022-10-11T06:28:44.569Z,9.39
2022-10-11T06:31:11.354Z,9.39
2022-10-11T06:33:38.694Z,9.45
2022-10-11T06:36:08.507Z,9.48
2022-10-11T06:38:35.522Z,9.50
2022-10-11T06:41:18.387Z,9.55
2022-10-11T06:43:45.460Z,9.52
2022-10-11T06:46:12.596Z,9.60
2022-10-11T06:48:40.273Z,9.62
2022-10-11T06:51:06.671Z,9.62
2022-10-11T06:53:33.079Z,9.67
2022-10-11T06:56:08.479Z,9.68
2022-10-11T06:58:35.651Z,9.73
2022-10-11T07:01:04.353Z,9.77
2022-10-11T07:03:31.474Z,9.81
2022-10-11T07:06:06.803Z,9.88
2022-10-11T07:08:34.129Z,9.92
2022-10-11T07:11:02.229Z,9.94
2022-10-11T07:13:28.852Z,10.01
2022-10-11T07:15:56.030Z,10.06
2022-10-11T07:18:23.430Z,10.12
2022-10-11T07:20:49.855Z,10.14
2022-10-11T07:23:16.246Z,10.19
2022-10-11T07:25:42.717Z,10.24
2022-10-11T07:28:09.133Z,10.31
2022-10-11T07:30:39.246Z,10.39
2022-10-11T07:33:05.677Z,10.41
2022-10-11T07:35:36.064Z,10.54
2022-10-11T07:38:02.819Z,10.67
2022-10-11T07:40:29.189Z,10.62
2022-10-11T07:42:56.912Z,10.68
2022-10-11T07:45:24.147Z,10.74
2022-10-11T07:47:50.549Z,10.76
2022-10-11T07:50:20.295Z,10.84
2022-10-11T07:52:47.279Z,10.90
2022-10-11T07:55:23.093Z,10.88
2022-10-11T07:57:58.477Z,11.08
2022-10-11T08:00:28.294Z,10.76
2022-10-11T08:03:06.158Z,11.00
2022-10-11T08:05:39.917Z,11.05
2022-10-11T08:08:10.444Z,11.15
2022-10-11T08:10:49.011Z,11.21
2022-10-11T08:13:32.513Z,11.23
2022-10-11T08:16:09.632Z,11.20
2022-10-11T08:18:52.816Z,11.53
2022-10-11T08:21:23.757Z,11.61
2022-10-11T08:23:59.798Z,11.64
2022-10-11T08:26:40.357Z,11.81
2022-10-11T08:29:14.851Z,11.71
2022-10-11T08:31:53.573Z,11.76
2022-10-11T08:34:27.258Z,11.81
2022-10-11T08:36:59.836Z,12.13
2022-10-11T08:39:43.254Z,11.89
2022-10-11T08:42:46.422Z,12.05
2022-10-11T08:45:46.934Z,12.51
2022-10-11T08:48:23.481Z,12.21
2022-10-11T08:50:58.265Z,12.43
2022-10-11T08:53:49.252Z,12.86
2022-10-11T08:56:28.419Z,12.83
2022-10-11T08:59:16.158Z,13.08
2022-10-11T09:02:49.307Z,13.07
2022-10-11T09:05:23.239Z,12.95
2022-10-11T09:08:42.710Z,13.40
2022-10-11T09:11:55.343Z,13.72
2022-10-11T09:14:46.804Z,13.57
2022-10-11T09:17:51.570Z,14.03
2022-10-11T09:21:02.724Z,14.24
2022-10-11T09:24:10.952Z,14.39
2022-10-11T09:27:14.771Z,14.30
2022-10-11T09:30:24.458Z,14.40
2022-10-11T09:33:37.499Z,14.70
2022-10-11T09:36:31.978Z,14.64
2022-10-11T09:39:31.900Z,15.12
2022-10-11T09:42:03.802Z,15.61
2022-10-11T09:44:47.386Z,15.96
2022-10-11T09:47:27.494Z,16.37
2022-10-11T09:50:20.590Z,16.84
2022-10-11T09:53:02.666Z,17.04
2022-10-11T09:55:35.797Z,17.35
2022-10-11T09:58:30.579Z,17.62
2022-10-11T10:01:23.351Z,17.89
2022-10-11T10:04:17.323Z,17.99
2022-10-11T10:06:50.383Z,17.41
2022-10-11T10:09:30.726Z,17.91
2022-10-11T10:15:16.834Z,17.83
2022-10-11T10:17:58.360Z,17.35
2022-10-11T10:20:34.319Z,17.43
2022-10-11T10:23:19.745Z,17.56
2022-10-11T10:25:54.054Z,17.30
2022-10-11T10:28:28.854Z,17.72
2022-10-11T10:31:05.282Z,17.62
2022-10-11T10:33:41.143Z,17.83
2022-10-11T10:36:24.473Z,18.14
2022-10-11T10:39:09.369Z,18.32
2022-10-11T10:41:46.281Z,18.26
2022-10-11T10:44:18.902Z,18.15
2022-10-11T10:47:09.978Z,18.30
2022-10-11T10:50:06.743Z,18.39
2022-10-11T10:53:04.228Z,18.79
2022-10-11T10:56:04.603Z,18.84
2022-10-11T10:59:16.136Z,18.87
2022-10-11T11:02:35.492Z,18.57
2022-10-11T11:05:27.140Z,18.79
2022-10-11T11:08:50.685Z,18.57
2022-10-11T11:11:32.268Z,18.72
2022-10-11T11:14:28.281Z,18.45
2022-10-11T11:17:25.013Z,18.60
2022-10-11T11:20:18.097Z,18.53
2022-10-11T11:23:31.479Z,18.45
2022-10-11T11:26:30.893Z,18.43
2022-10-11T11:29:55.625Z,18.00
2022-10-11T11:33:13.577Z,18.23
2022-10-11T11:36:02.206Z,17.66
2022-10-11T11:38:50.158Z,18.01
2022-10-11T11:41:34.527Z,17.97
2022-10-11T11:44:25.133Z,17.95
2022-10-11T11:47:09.371Z,17.72
2022-10-11T11:49:48.820Z,18.04
2022-10-11T11:52:35.034Z,17.83
2022-10-11T11:55:39.297Z,18.20
2022-10-11T11:58:38.265Z,18.07
2022-10-11T12:01:36.317Z,18.22
2022-10-11T12:04:25.793Z,18.03
2022-10-11T12:07:21.636Z,18.16
2022-10-11T12:10:33.356Z,18.20
2022-10-11T12:13:08.614Z,18.12
2022-10-11T12:15:37.632Z,18.08
2022-10-11T12:18:30.422Z,17.75
2022-10-11T12:21:28.988Z,17.93
2022-10-11T12:24:06.526Z,17.96
2022-10-11T12:26:50.256Z,18.22
2022-10-11T12:29:37.656Z,18.23
2022-10-11T12:32:06.843Z,18.28
2022-10-11T12:34:43.963Z,17.94
2022-10-11T12:37:26.354Z,18.37
2022-10-11T12:40:03.517Z,18.31
2022-10-11T12:42:50.996Z,18.07
2022-10-11T12:45:24.519Z,18.52
2022-10-11T12:48:33.907Z,18.76
2022-10-11T12:51:36.684Z,18.64
2022-10-11T12:54:41.509Z,19.24
2022-10-11T12:57:29.139Z,19.51
2022-10-11T13:00:17.047Z,19.47
2022-10-11T13:02:47.819Z,20.00
2022-10-11T13:05:45.048Z,20.02
2022-10-11T13:08:43.844Z,20.10
2022-10-11T13:11:22.111Z,20.09
2022-10-11T13:13:53.395Z,20.42
2022-10-11T13:16:28.270Z,20.60
2022-10-11T13:19:01.531Z,20.85
2022-10-11T13:21:39.451Z,20.51
2022-10-11T13:24:21.020Z,20.49
2022-10-11T13:26:55.676Z,20.58
2022-10-11T13:30:03.912Z,20.66
2022-10-11T13:32:38.328Z,20.80
2022-10-11T13:35:24.918Z,21.29
2022-10-11T13:38:00.856Z,21.26
2022-10-11T13:40:31.536Z,21.21
2022-10-11T13:43:09.217Z,21.30
2022-10-11T13:45:47.246Z,21.04
2022-10-11T13:48:18.454Z,20.81
2022-10-11T13:50:56.420Z,21.06
2022-10-11T13:53:40.919Z,20.59
2022-10-11T13:56:19.086Z,20.12
2022-10-11T13:58:51.317Z,20.05
2022-10-11T14:01:40.956Z,19.84
2022-10-11T14:04:29.466Z,19.48
2022-10-11T14:07:08.286Z,19.46
2022-10-11T14:09:51.549Z,19.06
2022-10-11T14:12:54.097Z,18.95
2022-10-11T14:15:42.603Z,18.42
2022-10-11T14:18:54.769Z,18.47
2022-10-11T14:21:58.424Z,18.23
2022-10-11T14:24:27.963Z,17.99
2022-10-11T14:26:59.669Z,17.85
2022-10-11T14:29:41.702Z,17.56
2022-10-11T14:32:16.375Z,17.40
2022-10-11T14:34:57.548Z,17.47
2022-10-11T14:37:36.439Z,17.10
2022-10-11T14:40:39.282Z,17.35
2022-10-11T14:43:13.697Z,17.05
2022-10-11T14:45:51.291Z,16.94
2022-10-11T14:48:36.677Z,17.17
2022-10-11T14:51:16.921Z,16.93
2022-10-11T14:53:51.902Z,16.90
2022-10-11T14:56:22.192Z,17.07
2022-10-11T14:58:57.628Z,16.99
2022-10-11T15:01:27.674Z,16.83
2022-10-11T15:03:54.998Z,17.01
2022-10-11T15:06:33.262Z,16.83
2022-10-11T15:09:06.427Z,17.05
2022-10-11T15:11:55.585Z,16.73
2022-10-11T15:14:28.774Z,16.54
2022-10-11T15:16:59.032Z,16.96
2022-10-11T15:19:33.522Z,17.12
2022-10-11T15:22:02.499Z,16.51
2022-10-11T15:24:29.729Z,16.63
2022-10-11T15:27:04.659Z,16.68
2022-10-11T15:29:40.521Z,16.67
2022-10-11T15:32:10.839Z,16.31
2022-10-11T15:34:42.063Z,16.47
2022-10-11T15:37:09.266Z,16.71
2022-10-11T15:39:44.158Z,16.54
2022-10-11T15:42:13.628Z,16.66
2022-10-11T15:44:54.187Z,16.35
2022-10-11T15:47:27.161Z,16.34
2022-10-11T15:50:06.257Z,16.17
2022-10-11T15:52:46.472Z,16.08
2022-10-11T15:55:13.709Z,16.73
2022-10-11T15:57:43.931Z,16.29
2022-10-11T16:00:10.742Z,16.68
2022-10-11T16:02:47.967Z,16.24
2022-10-11T16:05:15.123Z,16.31
2022-10-11T16:07:54.005Z,15.91
2022-10-11T16:10:30.912Z,16.14
2022-10-11T16:13:01.773Z,16.02
2022-10-11T16:18:22.354Z,16.02
2022-10-11T16:20:51.415Z,16.34
2022-10-11T16:23:34.624Z,15.79
2022-10-11T16:26:04.858Z,15.79
2022-10-11T16:28:40.749Z,15.76
2022-10-11T16:31:13.678Z,15.55
2022-10-11T16:33:54.637Z,15.67
2022-10-11T16:36:31.777Z,15.79
2022-10-11T16:39:01.147Z,15.72
2022-10-11T16:41:33.285Z,15.53
2022-10-11T16:44:10.555Z,15.36
2022-10-11T16:46:54.568Z,15.22
2022-10-11T16:49:27.791Z,14.96
2022-10-11T16:52:00.599Z,15.01
2022-10-11T16:54:37.547Z,14.92
2022-10-11T16:57:13.926Z,14.83
2022-10-11T16:59:46.511Z,14.79
2022-10-11T17:02:20.460Z,14.52
2022-10-11T17:04:53.004Z,14.63
2022-10-11T17:07:31.441Z,14.36
2022-10-11T17:10:01.547Z,14.31
2022-10-11T17:12:39.748Z,14.49
2022-10-11T17:15:10.090Z,14.20
2022-10-11T17:17:37.154Z,13.88
2022-10-11T17:20:06.407Z,13.81
2022-10-11T17:22:36.222Z,13.66
2022-10-11T17:25:05.617Z,13.59
2022-10-11T17:27:32.584Z,13.93
2022-10-11T17:29:59.231Z,13.64
2022-10-11T17:32:26.525Z,13.84
2022-10-11T17:34:53.925Z,13.54
2022-10-11T17:37:23.743Z,13.78
2022-10-11T17:39:50.787Z,13.61
2022-10-11T17:42:17.486Z,13.56
2022-10-11T17:44:44.462Z,13.66
2022-10-11T17:47:16.713Z,13.42
2022-10-11T17:49:52.597Z,13.41
2022-10-11T17:52:22.842Z,13.28
2022-10-11T17:54:52.166Z,13.63
2022-10-11T17:57:18.989Z,13.44
2022-10-11T17:59:45.758Z,13.31
2022-10-11T18:02:14.736Z,13.26
2022-10-11T18:04:46.223Z,13.21
2022-10-11T18:07:12.932Z,13.15
2022-10-11T18:09:41.183Z,13.17
2022-10-11T18:12:08.035Z,13.04
2022-10-11T18:14:34.445Z,13.03
2022-10-11T18:17:00.790Z,12.99
2022-10-11T18:19:27.289Z,12.92
2022-10-11T18:21:53.644Z,12.87
2022-10-11T18:24:20.082Z,12.83
2022-10-11T18:26:46.963Z,12.76
2022-10-11T18:29:13.678Z,12.68
2022-10-11T18:31:41.148Z,12.60
2022-10-11T18:34:10.827Z,12.57
2022-10-11T18:36:37.890Z,12.53
2022-10-11T18:39:07.367Z,12.44
2022-10-11T18:41:34.219Z,12.39
2022-10-11T18:44:03.893Z,12.30
2022-10-11T18:46:30.579Z,12.25
2022-10-11T18:48:59.678Z,12.23
2022-10-11T18:51:28.694Z,12.11
2022-10-11T18:53:55.727Z,12.03
2022-10-11T18:56:24.682Z,12.02
2022-10-11T18:58:52.847Z,12.00
2022-10-11T19:01:31.626Z,11.96
2022-10-11T19:03:59.968Z,11.79
2022-10-11T19:06:49.367Z,11.78
2022-10-11T19:09:21.648Z,11.74
2022-10-11T19:11:50.237Z,11.62
2022-10-11T19:14:18.853Z,11.56
2022-10-11T19:16:51.498Z,11.44
2022-10-11T19:19:20.383Z,11.43
2022-10-11T19:21:48.605Z,11.36
2022-10-11T19:24:20.319Z,11.30
2022-10-11T19:26:47.430Z,11.23
2022-10-11T19:29:19.677Z,11.18
2022-10-11T19:31:54.529Z,11.13
2022-10-11T19:34:22.664Z,11.06
2022-10-11T19:36:53.253Z,11.01
2022-10-11T19:39:21.392Z,10.92
2022-10-11T19:41:47.782Z,10.85
2022-10-11T19:44:15.326Z,10.84
2022-10-11T19:46:51.640Z,10.80
2022-10-11T19:49:22.335Z,10.73
2022-10-11T19:51:48.775Z,10.70
2022-10-11T19:54:15.635Z,10.63
2022-10-11T19:56:43.016Z,10.60
2022-10-11T19:59:10.944Z,10.53
2022-10-11T20:01:37.470Z,10.49
2022-10-11T20:04:22.625Z,10.45
2022-10-11T20:06:57.382Z,10.39
2022-10-11T20:09:29.465Z,10.34
2022-10-11T20:11:56.947Z,10.18
2022-10-11T20:14:26.670Z,10.22
2022-10-11T20:16:53.144Z,10.13
2022-10-11T20:19:20.033Z,10.01
2022-10-11T20:21:47.637Z,10.07
2022-10-11T20:24:14.102Z,10.04
2022-10-11T20:26:40.578Z,10.00
2022-10-11T20:29:07.259Z,9.97
2022-10-11T20:31:37.933Z,9.94
2022-10-11T20:34:07.007Z,9.87
2022-10-11T20:36:35.793Z,9.86
2022-10-11T20:39:02.265Z,9.83
2022-10-11T20:41:34.191Z,9.78
2022-10-11T20:44:02.224Z,9.73
2022-10-11T20:46:31.408Z,9.69
2022-10-11T20:49:02.022Z,9.63
2022-10-11T20:51:30.474Z,9.49
2022-10-11T20:53:58.076Z,9.55
2022-10-11T20:56:25.128Z,9.50
2022-10-11T20:58:53.319Z,9.46
2022-10-11T21:01:26.318Z,9.41
2022-10-11T21:03:53.478Z,9.32
2022-10-11T21:06:20.445Z,9.29
2022-10-11T21:08:46.878Z,9.24
2022-10-11T21:11:13.405Z,9.16
2022-10-11T21:13:40.733Z,9.16
2022-10-11T21:16:12.626Z,9.10
2022-10-11T21:18:39.358Z,9.09
2022-10-11T21:21:13.758Z,9.05
2022-10-11T21:23:41.706Z,8.98
2022-10-11T21:26:11.416Z,8.89
2022-10-11T21:28:38.300Z,8.89
2022-10-11T21:31:09.522Z,8.90
2022-10-11T21:33:36.596Z,8.88
2022-10-11T21:36:05.147Z,8.84
2022-10-11T21:38:31.796Z,8.78
2022-10-11T21:40:58.173Z,8.74
2022-10-11T21:43:24.908Z,8.76
2022-10-11T21:45:51.352Z,8.66
2022-10-11T21:48:17.798Z,8.63
2022-10-11T21:50:44.153Z,8.68
2022-10-11T21:53:10.721Z,8.64
2022-10-11T21:55:37.093Z,8.61
2022-10-11T21:58:03.459Z,8.57
2022-10-11T22:00:29.893Z,8.55
2022-10-11T22:02:56.491Z,8.56
2022-10-11T22:05:22.856Z,8.53
2022-10-11T22:07:49.271Z,8.53
2022-10-11T22:10:15.821Z,8.50
2022-10-11T22:12:42.408Z,8.51
2022-10-11T22:15:09.198Z,8.44
2022-10-11T22:17:35.586Z,8.40
2022-10-11T22:20:02.147Z,8.38
2022-10-11T22:22:28.497Z,8.36
2022-10-11T22:24:54.955Z,8.38
2022-10-11T22:27:21.381Z,8.30
2022-10-11T22:29:47.743Z,8.32
2022-10-11T22:32:14.099Z,8.32
2022-10-11T22:34:40.678Z,8.25
2022-10-11T22:37:07.026Z,8.26
2022-10-11T22:39:33.439Z,8.23
2022-10-11T22:42:00.021Z,8.34
2022-10-11T22:44:29.431Z,8.33
2022-10-11T22:46:55.929Z,8.34
2022-10-11T22:49:22.429Z,8.37
2022-10-11T22:51:49.561Z,8.26
2022-10-11T22:54:15.928Z,8.32
2022-10-11T22:56:42.434Z,8.29
2022-10-11T22:59:09.488Z,8.24
2022-10-11T23:01:35.843Z,8.21
2022-10-11T23:04:02.332Z,8.22
2022-10-11T23:06:28.791Z,8.17
